AirNav   ATP
 
 544 users online  

CA84 Torrey Pines Gliderport
San Diego, California, USA

GOING TO SAN DIEGO?


FAA INFORMATION EFFECTIVE 21 JUNE 2018

Location

FAA Identifier: CA84
Lat/Long: 32-53-23.0000N / 117-14-49.0000W
32-53.383333N / 117-14.816667W
32.8897222 / -117.2469444
(estimated)
Elevation: 372 ft. / 113 m (estimated)
Variation: 13E (1985)
From city: 11 miles NW of SAN DIEGO, CA
Time zone: UTC -7 (UTC -8 during Standard Time)
Zip code: 92037

Gliderport Operations

Gliderport use: Private use. Permission required prior to landing
Activation date: 11/1961
Control tower: no
ARTCC: LOS ANGELES CENTER
FSS: SAN DIEGO FLIGHT SERVICE STATION
Attendance: UNATNDD
Wind indicator: no
Segmented circle: no

Gliderport Communications

WX ASOS at MYF (7 nm SE): PHONE 858-576-4337
WX ASOS at SAN (10 nm S): PHONE 619-296-8934
WX AWOS-3P at SEE (14 nm E): 125.45 (619-449-1228)
WX ASOS at CRQ (14 nm N): PHONE 760-930-0864
WX ASOS at RNM (19 nm NE): 132.025 (760-789-0736)

Nearby radio navigation aids

VOR radial/distance  VOR name  Freq  Var
MZBr335/6.5MISSION BAY VORTAC117.8015E
PGYr307/21.5POGGI VORTAC109.8014E
OCNr143/22.7OCEANSIDE VORTAC115.3015E
TIJr311/25.7TIJUANA VOR/DME116.5014E
JLIr231/36.5JULIAN VORTAC114.0015E

Gliderport Services

Airframe service: NONE
Powerplant service: NONE

Runway Information

Runway 9/27

Dimensions: 1500 x 30 ft. / 457 x 9 m
Surface: asphalt
RUNWAY 9  RUNWAY 27
Traffic pattern: leftleft
Obstructions: nonetrees, 100 ft. from runway

Gliderport Ownership and Management from official FAA records

Ownership: Publicly-owned
Owner: CITY OF SAN DIEGO
Manager: JIM FROST
4740 HARBINSON AVE
LA MESA, CA 91941
Phone 619-461-9614
WORK PHONE 619-535-9505 EXT 1585

Additional Remarks

GLIDER PORT IS LEASED FM CITY TO THE ASSOCD GLIDER CLUB OF SOUTHERN CALIF FOR STUDENT TRAINING & RIDGE SOARING.
ALL ACFT ARE TRAILERED GLIDERS.
ROLLING RWY .6 PERCENT GRADIENT.
EXTENSIVE HANG GLIDER OPERATIONS ON WEEKENDS AND WEEKDAYS.

Instrument Procedures

There are no published instrument procedures at CA84.

Some nearby airports with instrument procedures:

KNKX - Miramar MCAS (Joe Foss Field) Airport (5 nm E)
KMYF - Montgomery-Gibbs Executive Airport (7 nm SE)
KSAN - San Diego International Airport (10 nm S)
KNZY - North Island Naval Air Station (Halsey Field) (12 nm S)
KSEE - Gillespie Field Airport (14 nm E)
KCRQ - Mc Clellan-Palomar Airport (14 nm N)
KRNM - Ramona Airport (19 nm NE)
 
Loc | Ops | Rwys | IFR | FBO | Links
Com | Nav | Svcs | Stats | Notes

AirNav Hotels Sweepstakes
 
Area around CA84 (Torrey Pines Gliderport)
 
Road maps at: MapQuest Bing Google
 
Aerial photo
WARNING: Photo may not be current or correct
Aerial photo of CA84 (Torrey Pines Gliderport)
Photo by Doug Fronius
Photo taken 13-Mar-2004
from a 1942 Schweizer TG-2 sailplane.

Do you have a better or more recent aerial photo of Torrey Pines Gliderport that you would like to share? If so, please send us your photo.

 
Sectional chart

 
Airport distance calculator
Flying to Torrey Pines Gliderport? Find the distance to fly.

From to CA84

Sunrise and sunset
Times for 23-Jun-2018
 Local
(UTC-7)
 Zulu
(UTC)
Morning civil twilight05:1412:14
Sunrise05:4312:43
Sunset20:0003:00
Evening civil twilight20:2803:28

Current date and time
Zulu (UTC)  24-Jun-2018 05:26:51
Local (UTC-7)  23-Jun-2018 22:26:51
 
METAR
KNKX 
6nm E 
240455Z 20007KT 10SM OVC012 18/13 A2988 RMK AO2 SLP113 T01830133
KMYF 
7nm SE 
240453Z AUTO 21007KT 10SM OVC012 17/13 A2988 RMK AO2 SLP117 T01670133
KSAN 
10nm S 
240451Z 20010KT 10SM OVC016 18/13 A2990 RMK AO2 SLP123 T01780133
KNZY 
11nm S 
240512Z AUTO 19008KT 10SM OVC015 17/13 A2988 RMK AO2 T01720133
KCRQ 
15nm N 
240453Z 21007KT 10SM OVC014 17/14 A2987 RMK AO2 SLP112 T01670139
KSEE 
15nm E 
240515Z AUTO 27004KT 10SM OVC015 18/14 A2987 RMK AO2
KRNM 
19nm NE 
240516Z AUTO 31005KT 10SM BKN012 14/12 A2989 RMK AO2 T01440122
TAF
KNKX 
6nm E 
2403/2503 21007KT 9999 BKN015 QNH2983INS TEMPO 2403/2409 8000 BR OVC009 FM241630 21007KT 9999 SCT015 QNH2991INS T17/2412Z T24/2421Z
KSAN 
10nm S 
240306Z 2403/2506 19010KT P6SM OVC015= TAF AMD KMIV 240306Z 2403/2424 VRB03KT 4SM BR OVC002 FM241300 VRB03KT P6SM SCT020 BKN035 FM241800 24008KT P6SM BKN060
KNZY 
11nm S 
2323/2423 19011KT 9999 OVC014 QNH2983INS FM240200 VRB06KT 9999 BR BKN010 QNH2984INS TEMPO 2409/2415 9000 BR OVC007 FM241900 20009KT 9999 BKN012 QNH2980INS TEMPO 2419/2423 9999 SCT012 T17/2412Z T22/2422Z FS30135
KCRQ 
15nm N 
232207Z 2322/2418 21011G18KT P6SM OVC014 TEMPO 2409/2413 18006KT 3SM BR OVC007
NOTAMs
Click for the latest NOTAMs
NOTAMs are issued by the DoD/FAA and will open in a separate window not controlled by AirNav.

 

 
 

Would you like to see your business listed on this page?

 If your business provides an interesting product or service to pilots, flight crews, aircraft, or users of the Torrey Pines Gliderport, you should consider listing it here.  To start the listing process, click on the button below
 
Add a business
 

Other Pages about Torrey Pines Gliderport

www.agcsc.org/torrey_pines_info.html
 
Update a link
 
Copyright © AirNav, LLC. All rights reserved. Privacy Policy  Contact